Time;durP1;ratioP1;P1;durP2;ratioP2;P2;SDS_P1;SDS_P2;PMS_P1;PMS_P2;Temp;Humidity;BMP_temperature;BMP_pressure;BME280_temperature;BME280_humidity;BME280_pressure;Samples;Min_cycle;Max_cycle;Signal;HPM_P1;HPM_P2
2024/02/11 00:01:59;;;;;;;5.10;4.60;;;19.40;63.60;;;;;;5068619;28;20473;-77
2024/02/11 00:04:29;;;;;;;4.97;4.47;;;19.40;63.60;;;;;;5069923;28;20532;-77
2024/02/11 00:06:57;;;;;;;5.30;4.60;;;19.40;63.70;;;;;;5066409;28;20531;-78
2024/02/11 00:09:25;;;;;;;4.57;4.17;;;19.40;63.70;;;;;;5075648;28;20541;-77
2024/02/11 00:11:53;;;;;;;4.83;4.40;;;19.40;63.60;;;;;;5075130;28;20537;-76
2024/02/11 00:14:21;;;;;;;4.53;4.13;;;19.40;63.90;;;;;;5087586;28;20442;-78
2024/02/11 00:16:50;;;;;;;6.40;4.30;;;19.40;63.60;;;;;;5097610;28;20442;-77
2024/02/11 00:19:18;;;;;;;5.87;4.17;;;19.40;64.00;;;;;;5089698;28;20438;-77
2024/02/11 00:21:48;;;;;;;5.83;4.50;;;19.40;64.00;;;;;;5070818;28;20488;-78
2024/02/11 00:24:19;;;;;;;5.00;4.53;;;19.40;64.00;;;;;;5074179;28;20450;-77
2024/02/11 00:26:48;;;;;;;5.20;4.40;;;19.40;64.10;;;;;;5075600;28;20454;-78
2024/02/11 00:29:18;;;;;;;6.60;4.90;;;19.40;63.90;;;;;;5078746;28;20445;-78
2024/02/11 00:31:49;;;;;;;4.50;4.10;;;19.30;63.80;;;;;;5067726;28;20477;-77
2024/02/11 00:34:20;;;;;;;5.70;4.53;;;19.30;64.30;;;;;;5071975;28;20448;-78
2024/02/11 00:36:52;;;;;;;9.50;4.40;;;19.30;64.20;;;;;;5070721;28;20455;-78
2024/02/11 00:39:20;;;;;;;5.53;5.03;;;19.30;64.10;;;;;;5073268;28;20450;-77
2024/02/11 00:41:48;;;;;;;4.60;4.20;;;19.30;64.40;;;;;;5073084;28;20473;-77
2024/02/11 00:44:17;;;;;;;4.87;4.37;;;19.30;64.20;;;;;;5064902;28;20460;-77
2024/02/11 00:46:46;;;;;;;4.70;4.30;;;19.30;64.30;;;;;;5065135;28;20446;-77
2024/02/11 00:49:15;;;;;;;5.13;4.53;;;19.30;64.20;;;;;;5073189;28;20528;-77
2024/02/11 00:51:43;;;;;;;4.77;4.37;;;19.30;64.40;;;;;;5064762;28;20461;-77
2024/02/11 00:54:13;;;;;;;6.80;4.10;;;19.30;64.50;;;;;;5059546;28;20991;-77
2024/02/11 00:56:41;;;;;;;4.53;4.13;;;19.30;64.30;;;;;;5076800;28;20450;-77
2024/02/11 00:59:10;;;;;;;4.80;4.23;;;19.30;64.60;;;;;;5075125;28;20505;-76
2024/02/11 01:01:40;;;;;;;4.33;3.93;;;19.30;64.60;;;;;;5070760;28;20465;-77
2024/02/11 01:04:09;;;;;;;5.40;4.90;;;19.30;64.40;;;;;;5069476;28;20466;-77
2024/02/11 01:06:37;;;;;;;4.37;3.70;;;19.20;64.60;;;;;;5072284;28;20430;-76
2024/02/11 01:09:06;;;;;;;4.33;3.93;;;19.20;64.60;;;;;;5060154;28;20445;-77
2024/02/11 01:11:35;;;;;;;4.43;4.03;;;19.20;65.10;;;;;;5060833;28;20497;-77
2024/02/11 01:14:05;;;;;;;4.43;4.03;;;19.20;64.60;;;;;;5069740;28;20468;-77
2024/02/11 01:16:33;;;;;;;4.03;3.73;;;19.20;64.50;;;;;;5063407;28;20528;-77
2024/02/11 01:19:02;;;;;;;4.57;4.03;;;19.20;64.90;;;;;;5067621;28;20442;-76
2024/02/11 01:21:31;;;;;;;4.67;4.17;;;19.20;65.10;;;;;;5067545;28;20465;-76
2024/02/11 01:23:59;;;;;;;4.67;4.17;;;19.20;64.80;;;;;;5064400;28;20527;-77
2024/02/11 01:26:27;;;;;;;4.33;4.03;;;19.20;64.90;;;;;;5071610;28;20446;-77
2024/02/11 01:28:56;;;;;;;4.17;3.77;;;19.20;64.80;;;;;;5067189;28;20449;-76
2024/02/11 01:31:24;;;;;;;5.23;4.03;;;19.20;64.80;;;;;;5072212;28;20471;-76
2024/02/11 01:33:52;;;;;;;4.43;4.13;;;19.20;64.90;;;;;;5066529;28;20492;-77
2024/02/11 01:36:21;;;;;;;8.73;4.20;;;19.10;64.60;;;;;;5070950;28;20452;-77
2024/02/11 01:38:53;;;;;;;4.63;4.23;;;19.10;64.90;;;;;;5064463;28;20441;-77
2024/02/11 01:41:22;;;;;;;5.07;3.97;;;19.10;65.10;;;;;;5067560;28;20527;-78
2024/02/11 01:43:52;;;;;;;5.93;4.07;;;19.10;65.00;;;;;;5071230;28;20470;-77
2024/02/11 01:46:22;;;;;;;4.20;3.90;;;19.10;65.00;;;;;;5070950;28;20464;-76
2024/02/11 01:48:54;;;;;;;4.77;4.30;;;19.10;65.20;;;;;;5070724;28;20527;-77
2024/02/11 01:51:22;;;;;;;4.40;4.10;;;19.10;65.20;;;;;;5067163;28;20495;-79
2024/02/11 01:53:53;;;;;;;4.43;4.03;;;19.10;65.20;;;;;;5066604;28;20446;-76
2024/02/11 01:56:23;;;;;;;4.40;4.00;;;19.00;64.80;;;;;;5072614;28;20469;-78
2024/02/11 01:58:51;;;;;;;6.37;4.40;;;19.00;65.10;;;;;;5071797;28;20518;-77
2024/02/11 02:01:20;;;;;;;5.07;4.53;;;19.00;65.40;;;;;;5067916;28;20500;-78
2024/02/11 02:03:50;;;;;;;5.63;4.53;;;19.10;65.40;;;;;;5062887;28;20552;-78
2024/02/11 02:06:18;;;;;;;4.57;4.17;;;19.00;65.30;;;;;;5067019;28;20442;-78
2024/02/11 02:08:47;;;;;;;5.13;4.67;;;19.00;65.10;;;;;;5063420;28;20441;-78
2024/02/11 02:11:14;;;;;;;5.00;4.50;;;19.00;65.50;;;;;;5071834;28;20527;-77
2024/02/11 02:13:42;;;;;;;5.57;4.97;;;19.00;65.40;;;;;;5071551;28;20437;-78
2024/02/11 02:16:11;;;;;;;6.60;5.03;;;19.00;65.10;;;;;;5063425;28;20442;-78
2024/02/11 02:18:38;;;;;;;4.80;4.40;;;18.90;65.50;;;;;;5066222;28;20503;-78
2024/02/11 02:21:09;;;;;;;5.17;4.67;;;19.00;65.50;;;;;;5065365;28;20810;-78
2024/02/11 02:23:38;;;;;;;7.90;4.90;;;19.00;65.40;;;;;;5070392;28;20489;-78
2024/02/11 02:26:08;;;;;;;4.83;4.33;;;18.90;65.20;;;;;;5069264;28;20538;-78
2024/02/11 02:28:37;;;;;;;5.17;4.30;;;18.90;65.50;;;;;;5065881;28;20445;-78
2024/02/11 02:31:07;;;;;;;6.47;5.13;;;18.90;65.50;;;;;;5066074;28;20470;-78
2024/02/11 02:33:36;;;;;;;5.50;5.00;;;18.90;65.60;;;;;;5068554;28;20442;-78
2024/02/11 02:36:05;;;;;;;5.37;4.80;;;18.90;65.30;;;;;;5070156;28;20470;-78
2024/02/11 02:38:33;;;;;;;5.27;4.80;;;18.90;65.70;;;;;;5066175;28;20443;-78
2024/02/11 02:41:03;;;;;;;4.90;4.40;;;18.90;65.70;;;;;;5071471;28;20484;-78
2024/02/11 02:43:32;;;;;;;5.70;5.10;;;18.90;65.70;;;;;;5080894;28;20480;-78
2024/02/11 02:46:00;;;;;;;4.53;4.13;;;18.90;65.50;;;;;;5074026;28;20481;-77
2024/02/11 02:48:31;;;;;;;5.27;4.83;;;18.90;65.70;;;;;;5072045;28;20496;-77
2024/02/11 02:51:00;;;;;;;4.67;4.20;;;18.90;65.80;;;;;;5065438;28;20465;-77
2024/02/11 02:53:29;;;;;;;4.70;4.30;;;18.90;65.70;;;;;;5069897;28;20940;-78
2024/02/11 02:55:57;;;;;;;5.07;4.57;;;18.90;65.70;;;;;;5064289;28;20478;-78
2024/02/11 02:58:26;;;;;;;5.93;4.73;;;18.80;65.70;;;;;;5074772;28;20441;-78
2024/02/11 03:00:54;;;;;;;6.10;4.70;;;18.80;65.60;;;;;;5059899;28;20544;-78
2024/02/11 03:03:22;;;;;;;6.00;4.70;;;18.80;65.90;;;;;;5061900;28;20473;-77
2024/02/11 03:05:51;;;;;;;5.23;4.73;;;18.80;65.70;;;;;;5071441;28;20484;-77
2024/02/11 03:08:19;;;;;;;4.90;4.50;;;18.80;65.70;;;;;;5070490;28;20515;-78
2024/02/11 03:10:47;;;;;;;4.83;4.20;;;18.80;65.90;;;;;;5070146;28;20466;-77
2024/02/11 03:13:15;;;;;;;5.97;5.20;;;18.80;65.80;;;;;;5070079;28;20912;-77
2024/02/11 03:15:44;;;;;;;10.40;7.93;;;18.80;65.90;;;;;;5070716;28;20860;-76
2024/02/11 03:18:12;;;;;;;8.17;5.97;;;18.80;65.60;;;;;;5065372;28;20437;-76
2024/02/11 03:20:41;;;;;;;10.50;7.17;;;18.80;65.70;;;;;;5064777;28;20458;-77
2024/02/11 03:23:09;;;;;;;9.13;6.60;;;18.70;65.80;;;;;;5070671;28;20537;-78
2024/02/11 03:25:38;;;;;;;12.30;8.27;;;18.70;65.80;;;;;;5061830;28;20478;-77
2024/02/11 03:28:07;;;;;;;11.70;7.77;;;18.70;65.80;;;;;;5065846;28;20466;-77
2024/02/11 03:30:35;;;;;;;10.37;7.93;;;18.70;65.90;;;;;;5067836;28;20469;-79
2024/02/11 03:33:05;;;;;;;11.93;8.77;;;18.70;65.80;;;;;;5069794;28;20445;-78
2024/02/11 03:35:33;;;;;;;13.00;9.10;;;18.70;65.70;;;;;;5069681;28;20448;-77
2024/02/11 03:38:01;;;;;;;12.30;9.23;;;18.70;65.90;;;;;;5086893;28;20457;-78
2024/02/11 03:40:30;;;;;;;15.63;10.20;;;18.70;65.90;;;;;;5085816;28;20478;-79
2024/02/11 03:42:58;;;;;;;11.87;9.10;;;18.70;65.90;;;;;;5090974;28;20434;-78
2024/02/11 03:45:25;;;;;;;13.43;9.43;;;18.70;65.80;;;;;;5075706;28;20912;-77
2024/02/11 03:47:53;;;;;;;12.63;9.13;;;18.70;65.80;;;;;;5069559;28;20446;-77
2024/02/11 03:50:24;;;;;;;12.60;9.50;;;18.70;65.80;;;;;;5076498;28;20457;-77
2024/02/11 03:52:52;;;;;;;12.40;9.63;;;18.70;65.90;;;;;;5071268;28;20457;-77
2024/02/11 03:55:20;;;;;;;14.73;9.90;;;18.70;66.10;;;;;;5075557;28;20472;-77
2024/02/11 03:57:47;;;;;;;13.23;9.63;;;18.60;65.60;;;;;;5080715;28;20460;-78
2024/02/11 04:00:20;;;;;;;15.53;10.20;;;18.60;66.00;;;;;;5075169;28;20532;-77
2024/02/11 04:02:48;;;;;;;14.90;9.73;;;18.60;66.00;;;;;;5073460;28;20433;-77
2024/02/11 04:05:16;;;;;;;14.30;9.90;;;18.60;65.80;;;;;;5073574;28;20505;-78
2024/02/11 04:07:46;;;;;;;12.50;9.70;;;18.60;66.10;;;;;;5073954;28;20512;-77
2024/02/11 04:10:18;;;;;;;12.83;9.97;;;18.60;66.00;;;;;;5073618;28;20437;-78
2024/02/11 04:12:47;;;;;;;12.93;9.07;;;18.60;66.10;;;;;;5069988;28;20437;-77
2024/02/11 04:15:19;;;;;;;14.43;10.03;;;18.60;66.10;;;;;;5068774;28;20441;-78
2024/02/11 04:17:48;;;;;;;14.93;9.77;;;18.60;65.90;;;;;;5071327;28;20465;-78
2024/02/11 04:20:24;;;;;;;15.03;10.40;;;18.60;66.10;;;;;;5073248;28;20532;-78
2024/02/11 04:22:57;;;;;;;12.33;9.00;;;18.50;66.00;;;;;;5072475;28;20583;-78
2024/02/11 04:25:30;;;;;;;10.20;8.00;;;18.50;66.10;;;;;;5068067;28;20466;-78
2024/02/11 04:27:58;;;;;;;12.70;9.53;;;18.50;66.30;;;;;;5066975;28;20433;-78
2024/02/11 04:30:27;;;;;;;14.33;9.43;;;18.50;66.00;;;;;;5072475;28;20481;-77
2024/02/11 04:32:55;;;;;;;17.40;9.87;;;18.50;66.00;;;;;;5070593;28;20434;-77
2024/02/11 04:35:24;;;;;;;11.17;8.90;;;18.50;66.20;;;;;;5066099;28;20464;-78
2024/02/11 04:37:55;;;;;;;15.00;9.67;;;18.50;66.20;;;;;;5058965;28;20436;-78
2024/02/11 04:40:25;;;;;;;11.13;8.13;;;18.50;66.10;;;;;;5069960;28;20533;-78
2024/02/11 04:42:53;;;;;;;14.30;9.73;;;18.50;66.10;;;;;;5065572;28;20465;-77
2024/02/11 04:45:22;;;;;;;10.77;8.60;;;18.50;66.20;;;;;;5058237;28;20474;-78
2024/02/11 04:47:53;;;;;;;11.87;8.50;;;18.50;66.40;;;;;;5069612;28;20515;-78
2024/02/11 04:50:22;;;;;;;11.37;7.87;;;18.40;66.10;;;;;;5064333;28;20493;-78
2024/02/11 04:52:55;;;;;;;12.87;9.40;;;18.50;66.40;;;;;;5064470;28;20473;-77
2024/02/11 04:55:27;;;;;;;11.60;9.03;;;18.50;66.10;;;;;;5070076;28;20514;-78
2024/02/11 04:57:56;;;;;;;13.03;9.47;;;18.40;66.30;;;;;;5063595;28;20449;-78
2024/02/11 05:00:25;;;;;;;11.00;8.00;;;18.40;66.20;;;;;;5066869;28;20466;-78
2024/02/11 05:02:53;;;;;;;13.03;8.40;;;18.40;66.20;;;;;;5072413;28;20420;-77
2024/02/11 05:05:25;;;;;;;11.93;7.83;;;18.40;66.30;;;;;;5072022;28;20460;-77
2024/02/11 05:07:53;;;;;;;12.87;8.33;;;18.50;66.40;;;;;;5062382;28;20438;-77
2024/02/11 05:10:24;;;;;;;13.07;8.47;;;18.50;66.00;;;;;;5070347;28;20457;-79
2024/02/11 05:12:52;;;;;;;9.97;7.90;;;18.40;66.40;;;;;;5070594;28;20509;-79
2024/02/11 05:15:21;;;;;;;10.20;7.90;;;18.40;66.50;;;;;;5062421;28;20453;-78
2024/02/11 05:17:49;;;;;;;10.77;8.00;;;18.40;66.40;;;;;;5062094;28;20437;-78
2024/02/11 05:20:23;;;;;;;11.27;8.33;;;18.40;66.20;;;;;;5070384;28;20437;-77
2024/02/11 05:22:51;;;;;;;11.30;8.50;;;18.40;66.20;;;;;;5063097;28;20434;-78
2024/02/11 05:25:23;;;;;;;10.83;7.80;;;18.40;66.50;;;;;;5064205;28;21046;-78
2024/02/11 05:27:56;;;;;;;10.30;8.00;;;18.40;66.20;;;;;;5071877;28;20507;-77
2024/02/11 05:30:25;;;;;;;11.87;8.80;;;18.30;66.20;;;;;;5069461;28;20475;-77
2024/02/11 05:32:54;;;;;;;9.53;7.50;;;18.30;66.20;;;;;;5071697;28;20442;-77
2024/02/11 05:35:23;;;;;;;11.40;8.67;;;18.30;66.40;;;;;;5063357;28;20868;-78
2024/02/11 05:37:57;;;;;;;11.23;8.03;;;18.30;66.20;;;;;;5074703;28;20526;-78
2024/02/11 05:40:26;;;;;;;10.37;7.80;;;18.30;66.30;;;;;;5072547;28;20794;-77
2024/02/11 05:42:56;;;;;;;11.70;8.50;;;18.30;66.10;;;;;;5072317;28;20442;-78
2024/02/11 05:45:24;;;;;;;9.53;7.53;;;18.30;66.40;;;;;;5063213;28;20560;-77
2024/02/11 05:47:52;;;;;;;10.40;7.33;;;18.30;66.50;;;;;;5062215;28;20477;-78
2024/02/11 05:50:21;;;;;;;8.97;7.40;;;18.30;66.30;;;;;;5071060;28;20465;-77
2024/02/11 05:52:49;;;;;;;12.83;8.17;;;18.30;66.40;;;;;;5071075;28;20519;-78
2024/02/11 05:55:18;;;;;;;9.80;7.70;;;18.30;66.20;;;;;;5068179;28;20447;-79
2024/02/11 05:57:47;;;;;;;9.00;7.63;;;18.30;66.10;;;;;;5063092;28;20534;-79
2024/02/11 06:00:18;;;;;;;10.03;7.20;;;18.30;66.30;;;;;;5065141;28;20450;-79
2024/02/11 06:02:47;;;;;;;9.10;7.40;;;18.30;66.10;;;;;;5072257;28;20450;-79
2024/02/11 06:05:15;;;;;;;10.33;7.77;;;18.30;66.80;;;;;;5060451;28;20473;-79
2024/02/11 06:07:46;;;;;;;9.30;7.47;;;18.20;66.30;;;;;;5059278;28;20446;-78
2024/02/11 06:10:14;;;;;;;9.47;7.10;;;18.20;66.50;;;;;;5065592;28;20463;-78
2024/02/11 06:12:43;;;;;;;10.70;7.20;;;18.20;66.40;;;;;;5068354;28;20529;-79
2024/02/11 06:15:11;;;;;;;8.87;7.30;;;18.20;66.10;;;;;;5066889;28;20449;-78
2024/02/11 06:17:41;;;;;;;11.27;7.90;;;18.20;66.50;;;;;;5058654;28;20516;-80
2024/02/11 06:20:13;;;;;;;9.27;7.27;;;18.20;66.30;;;;;;5073209;28;20484;-78
2024/02/11 06:22:42;;;;;;;10.87;7.33;;;18.20;66.30;;;;;;5057377;28;20462;-79
2024/02/11 06:25:11;;;;;;;9.10;6.67;;;18.20;66.50;;;;;;5071760;28;20446;-78
2024/02/11 06:27:39;;;;;;;9.70;7.13;;;18.20;66.60;;;;;;5068041;28;20449;-78
2024/02/11 06:30:11;;;;;;;9.53;7.50;;;18.20;66.40;;;;;;5074102;28;20460;-78
2024/02/11 06:32:41;;;;;;;8.93;6.90;;;18.20;66.30;;;;;;5067868;28;20430;-79
2024/02/11 06:35:10;;;;;;;7.53;6.50;;;18.20;66.40;;;;;;5072496;28;20438;-77
2024/02/11 06:37:38;;;;;;;10.17;7.40;;;18.20;66.50;;;;;;5069530;28;20528;-78
2024/02/11 06:40:10;;;;;;;8.23;6.50;;;18.20;66.60;;;;;;5072966;28;20465;-78
2024/02/11 06:42:39;;;;;;;9.03;6.80;;;18.20;66.30;;;;;;5065888;28;20434;-78
2024/02/11 06:45:08;;;;;;;9.57;7.27;;;18.10;66.60;;;;;;5070638;28;20481;-78
2024/02/11 06:47:36;;;;;;;9.63;6.73;;;18.10;66.40;;;;;;5060290;28;20491;-78
2024/02/11 06:50:07;;;;;;;8.93;7.10;;;18.20;66.30;;;;;;5069789;28;20473;-79
2024/02/11 06:52:35;;;;;;;8.63;7.23;;;18.10;66.30;;;;;;5071781;28;20506;-79
2024/02/11 06:55:05;;;;;;;9.10;6.93;;;18.10;66.60;;;;;;5062494;28;20538;-78
2024/02/11 06:57:33;;;;;;;10.07;7.73;;;18.10;66.50;;;;;;5058208;28;20490;-78
2024/02/11 07:00:01;;;;;;;10.10;7.50;;;18.10;66.40;;;;;;5074456;28;20464;-79
2024/02/11 07:02:34;;;;;;;8.77;6.93;;;18.10;66.30;;;;;;5087418;28;20464;-80
2024/02/11 07:05:02;;;;;;;11.40;7.33;;;18.10;66.40;;;;;;5093876;28;20449;-79
2024/02/11 07:07:33;;;;;;;9.93;7.23;;;18.10;66.40;;;;;;5081959;28;20496;-78
2024/02/11 07:10:01;;;;;;;9.87;7.23;;;18.10;66.30;;;;;;5073564;28;20442;-78
2024/02/11 07:12:29;;;;;;;9.13;7.30;;;18.10;66.50;;;;;;5069054;28;20468;-77
2024/02/11 07:14:57;;;;;;;10.90;7.47;;;18.10;66.40;;;;;;5067020;28;20525;-77
2024/02/11 07:17:25;;;;;;;10.43;7.03;;;18.10;66.50;;;;;;5076053;28;20442;-78
2024/02/11 07:19:54;;;;;;;8.10;6.60;;;18.10;66.50;;;;;;5076533;28;20434;-78
2024/02/11 07:22:22;;;;;;;9.37;6.70;;;18.10;66.50;;;;;;5059915;28;20474;-78
2024/02/11 07:24:52;;;;;;;9.17;6.93;;;18.10;66.30;;;;;;5070843;28;20468;-77
2024/02/11 07:27:20;;;;;;;7.93;7.13;;;18.10;66.40;;;;;;5073746;28;20522;-78
2024/02/11 07:29:49;;;;;;;12.47;7.40;;;18.10;66.50;;;;;;5065860;28;20911;-77
2024/02/11 07:32:17;;;;;;;10.13;7.13;;;18.10;66.50;;;;;;5074432;28;20470;-78
2024/02/11 07:34:47;;;;;;;9.37;7.23;;;18.10;66.40;;;;;;5075263;28;20491;-78
2024/02/11 07:37:16;;;;;;;10.07;7.23;;;18.10;66.30;;;;;;5076166;28;20444;-78
2024/02/11 07:39:44;;;;;;;9.07;7.00;;;18.10;66.60;;;;;;5080943;28;20446;-77
2024/02/11 07:42:15;;;;;;;10.30;7.03;;;18.10;66.40;;;;;;5073448;28;20494;-77
2024/02/11 07:44:43;;;;;;;8.90;7.13;;;18.10;66.50;;;;;;5067172;28;20450;-78
2024/02/11 07:47:12;;;;;;;8.07;6.50;;;18.10;66.50;;;;;;5064560;28;20515;-76
2024/02/11 07:49:40;;;;;;;8.87;6.53;;;18.10;66.50;;;;;;5067561;28;20492;-76
2024/02/11 07:52:09;;;;;;;10.13;7.27;;;18.10;66.50;;;;;;5070188;28;20465;-77
2024/02/11 07:54:37;;;;;;;8.20;6.43;;;18.10;66.40;;;;;;5073194;28;20538;-76
2024/02/11 07:57:06;;;;;;;10.30;6.60;;;18.20;66.40;;;;;;5072433;28;20450;-79
2024/02/11 07:59:37;;;;;;;9.00;6.97;;;18.10;66.40;;;;;;5071255;28;20473;-79
2024/02/11 08:02:06;;;;;;;8.43;6.30;;;18.20;66.60;;;;;;5075040;28;20461;-80
2024/02/11 08:04:34;;;;;;;7.90;6.40;;;18.10;66.40;;;;;;5075043;28;20507;-77
2024/02/11 08:07:02;;;;;;;7.53;6.63;;;18.10;66.30;;;;;;5065359;28;20469;-79
2024/02/11 08:09:31;;;;;;;7.50;6.50;;;18.10;66.50;;;;;;5068008;28;20460;-77
2024/02/11 08:12:00;;;;;;;8.23;6.67;;;18.10;66.40;;;;;;5070058;28;20459;-76
2024/02/11 08:14:27;;;;;;;7.80;6.53;;;18.20;66.50;;;;;;5074237;28;20531;-76
2024/02/11 08:16:57;;;;;;;8.97;6.60;;;18.10;66.30;;;;;;5068140;28;20517;-77
2024/02/11 08:19:26;;;;;;;10.53;6.40;;;18.10;66.50;;;;;;5067974;28;20422;-77
2024/02/11 08:21:54;;;;;;;10.80;7.00;;;18.10;66.30;;;;;;5063491;28;20454;-77
2024/02/11 08:24:22;;;;;;;7.53;6.53;;;18.10;66.60;;;;;;5070151;28;20522;-75
2024/02/11 08:26:50;;;;;;;7.70;6.33;;;18.10;66.70;;;;;;5069456;28;20489;-76
2024/02/11 08:29:19;;;;;;;8.50;6.70;;;18.10;66.50;;;;;;5069940;28;20478;-77
2024/02/11 08:31:48;;;;;;;8.50;6.60;;;18.10;66.40;;;;;;5059574;28;20530;-76
2024/02/11 08:34:18;;;;;;;7.27;6.10;;;18.10;66.20;;;;;;5065045;28;20958;-77
2024/02/11 08:36:46;;;;;;;7.60;6.27;;;18.10;66.50;;;;;;5057391;28;20470;-76
2024/02/11 08:39:15;;;;;;;7.00;6.30;;;18.10;66.30;;;;;;5069530;28;20941;-76
2024/02/11 08:41:43;;;;;;;8.40;6.50;;;18.10;66.40;;;;;;5073719;28;20508;-76
2024/02/11 08:44:13;;;;;;;7.53;6.33;;;18.10;66.30;;;;;;5061913;28;20450;-76
2024/02/11 08:46:41;;;;;;;9.47;7.00;;;18.10;67.20;;;;;;5054987;28;20473;-76
2024/02/11 08:49:09;;;;;;;8.23;6.83;;;18.10;66.40;;;;;;5070573;28;20944;-76
2024/02/11 08:51:39;;;;;;;8.23;6.60;;;18.10;66.40;;;;;;5073407;28;20458;-77
2024/02/11 08:54:06;;;;;;;10.27;7.27;;;18.10;66.40;;;;;;5073261;28;20520;-76
2024/02/11 08:56:34;;;;;;;9.23;7.27;;;18.10;66.30;;;;;;5072850;28;21004;-76
2024/02/11 08:59:03;;;;;;;9.00;6.63;;;18.10;66.30;;;;;;5073667;28;20521;-77
2024/02/11 09:01:31;;;;;;;8.03;6.37;;;18.10;66.40;;;;;;5065892;28;20472;-76
2024/02/11 09:04:00;;;;;;;7.73;6.93;;;18.10;66.50;;;;;;5072661;28;20450;-76
2024/02/11 09:06:28;;;;;;;8.07;6.97;;;18.10;66.40;;;;;;5064994;28;20434;-76
2024/02/11 09:08:58;;;;;;;9.53;7.57;;;18.10;66.30;;;;;;5064503;28;20534;-77
2024/02/11 09:11:26;;;;;;;10.70;7.20;;;18.10;66.40;;;;;;5057200;28;20462;-76
2024/02/11 09:13:54;;;;;;;9.57;7.20;;;18.10;66.30;;;;;;5064157;28;20442;-76
2024/02/11 09:16:24;;;;;;;8.37;7.27;;;18.20;66.40;;;;;;5067309;28;20447;-77
2024/02/11 09:18:52;;;;;;;9.43;7.20;;;18.20;66.40;;;;;;5064916;28;20442;-76
2024/02/11 09:21:20;;;;;;;8.03;7.10;;;18.10;66.30;;;;;;5069534;28;20465;-76
2024/02/11 09:23:48;;;;;;;10.27;7.00;;;18.10;66.30;;;;;;5065199;28;20582;-77
2024/02/11 09:26:17;;;;;;;11.27;7.70;;;18.20;66.40;;;;;;5062247;28;20497;-76
2024/02/11 09:28:45;;;;;;;9.80;7.67;;;18.20;66.40;;;;;;5063343;28;20498;-77
2024/02/11 09:31:13;;;;;;;8.33;7.20;;;18.20;66.50;;;;;;5059076;28;20489;-76
2024/02/11 09:33:41;;;;;;;8.60;6.87;;;18.20;66.50;;;;;;5059630;28;20518;-76
2024/02/11 09:36:10;;;;;;;9.30;7.00;;;18.20;66.60;;;;;;5060452;28;20470;-77
2024/02/11 09:38:38;;;;;;;9.87;7.27;;;18.20;66.40;;;;;;5068359;28;20443;-76
2024/02/11 09:41:07;;;;;;;9.97;7.70;;;18.20;66.50;;;;;;5071073;28;20456;-76
2024/02/11 09:43:38;;;;;;;9.13;7.53;;;18.30;66.30;;;;;;5066870;28;20507;-78
2024/02/11 09:46:06;;;;;;;8.60;7.23;;;18.20;66.40;;;;;;5066452;28;20537;-77
2024/02/11 09:48:34;;;;;;;8.80;7.33;;;18.20;66.30;;;;;;5065769;28;20474;-76
2024/02/11 09:51:02;;;;;;;9.50;6.90;;;18.20;66.40;;;;;;5072594;28;20473;-77
2024/02/11 09:53:31;;;;;;;11.63;6.67;;;18.20;66.20;;;;;;5065034;28;20489;-76
2024/02/11 09:56:00;;;;;;;8.50;6.80;;;18.40;70.70;;;;;;5070231;28;20449;-77
2024/02/11 09:58:29;;;;;;;10.63;7.17;;;18.60;69.40;;;;;;5072286;28;20441;-77
2024/02/11 10:01:02;;;;;;;10.33;7.07;;;18.60;68.70;;;;;;5071985;28;20456;-77
2024/02/11 10:03:31;;;;;;;13.30;7.97;;;18.70;68.40;;;;;;5063457;28;20420;-78
2024/02/11 10:06:00;;;;;;;24.37;12.57;;;18.70;70.20;;;;;;5071722;28;20524;-79
2024/02/11 10:08:29;;;;;;;28.30;14.43;;;18.30;66.00;;;;;;5067521;28;20448;-78
2024/02/11 10:10:59;;;;;;;33.60;16.33;;;17.60;64.10;;;;;;5077003;28;20461;-78
2024/02/11 10:13:27;;;;;;;36.03;17.60;;;17.20;64.50;;;;;;5080874;28;20449;-79
2024/02/11 10:15:57;;;;;;;42.77;21.47;;;16.90;64.50;;;;;;5082916;28;20446;-78
2024/02/11 10:18:27;;;;;;;36.20;18.50;;;16.80;66.80;;;;;;5080096;28;20468;-78
2024/02/11 10:20:55;;;;;;;30.77;16.20;;;16.80;65.40;;;;;;5076440;28;20476;-79
2024/02/11 10:23:24;;;;;;;43.43;17.83;;;16.90;65.40;;;;;;5078379;28;20442;-79
2024/02/11 10:25:53;;;;;;;33.00;16.10;;;16.70;67.10;;;;;;5087647;28;20452;-79
2024/02/11 10:28:21;;;;;;;29.43;16.13;;;16.80;67.00;;;;;;5091101;28;20481;-79
2024/02/11 10:30:49;;;;;;;32.93;16.50;;;16.80;67.80;;;;;;5090821;28;20449;-77
2024/02/11 10:33:17;;;;;;;31.40;15.53;;;16.80;64.60;;;;;;5075811;28;20469;-77
2024/02/11 10:35:49;;;;;;;32.33;15.70;;;16.80;65.60;;;;;;5075713;28;20434;-76
2024/02/11 10:38:18;;;;;;;30.73;15.63;;;16.70;66.10;;;;;;5077076;28;20453;-77
2024/02/11 10:40:46;;;;;;;31.53;15.80;;;16.80;65.00;;;;;;5077097;28;20530;-77
2024/02/11 10:43:16;;;;;;;31.63;15.47;;;16.80;65.60;;;;;;5073065;28;20446;-76
2024/02/11 10:45:44;;;;;;;30.30;15.10;;;16.70;65.90;;;;;;5077905;28;20458;-77
2024/02/11 10:48:12;;;;;;;33.03;16.57;;;16.70;66.30;;;;;;5075731;28;20497;-77
2024/02/11 10:50:40;;;;;;;33.73;17.00;;;16.70;65.90;;;;;;5078180;28;20472;-78
2024/02/11 10:53:12;;;;;;;36.73;19.40;;;16.70;65.90;;;;;;5080090;28;20498;-77
2024/02/11 10:55:42;;;;;;;35.23;18.40;;;16.80;67.50;;;;;;5077978;28;20444;-76
2024/02/11 10:58:10;;;;;;;34.30;17.17;;;17.20;67.50;;;;;;5081031;28;20629;-76
2024/02/11 11:00:42;;;;;;;33.83;17.60;;;17.60;67.20;;;;;;5078840;28;20550;-76
2024/02/11 11:03:11;;;;;;;39.00;17.40;;;17.80;67.00;;;;;;5075091;28;20442;-78
2024/02/11 11:05:40;;;;;;;30.33;15.13;;;18.10;67.00;;;;;;5072321;28;20437;-77
2024/02/11 11:08:10;;;;;;;22.77;13.40;;;18.30;67.20;;;;;;5082454;28;20473;-77
2024/02/11 11:10:38;;;;;;;22.30;12.33;;;18.50;68.50;;;;;;5076480;28;20467;-77
2024/02/11 11:13:07;;;;;;;20.80;12.10;;;18.70;65.90;;;;;;5076668;28;20441;-76
2024/02/11 11:15:35;;;;;;;21.10;12.03;;;18.80;64.00;;;;;;5077624;28;20928;-76
2024/02/11 11:18:09;;;;;;;24.53;11.83;;;18.80;63.40;;;;;;5076751;28;20509;-79
2024/02/11 11:20:37;;;;;;;20.00;11.07;;;18.90;63.00;;;;;;5070718;28;20545;-76
2024/02/11 11:23:06;;;;;;;17.67;10.87;;;18.80;63.50;;;;;;5076076;28;20469;-77
2024/02/11 11:25:36;;;;;;;22.00;10.60;;;18.90;63.00;;;;;;5074749;28;20452;-77
2024/02/11 11:28:22;;;;;;;24.10;11.33;;;18.90;62.70;;;;;;5074500;28;20477;-76
2024/02/11 11:30:51;;;;;;;18.37;10.70;;;18.90;62.80;;;;;;5069649;28;20543;-78
2024/02/11 11:33:20;;;;;;;22.50;12.77;;;18.80;62.50;;;;;;5076161;28;21015;-78
2024/02/11 11:35:56;;;;;;;24.47;12.80;;;18.10;60.10;;;;;;5075700;28;20449;-77
2024/02/11 11:38:24;;;;;;;25.90;13.53;;;17.50;62.50;;;;;;5074820;28;20461;-78
2024/02/11 11:40:54;;;;;;;26.40;13.97;;;16.80;63.80;;;;;;5073966;28;20480;-77
2024/02/11 11:43:24;;;;;;;26.57;13.73;;;16.50;64.80;;;;;;5074726;28;20472;-77
2024/02/11 11:45:54;;;;;;;26.00;13.27;;;16.30;65.90;;;;;;5074276;28;20436;-76
2024/02/11 11:48:22;;;;;;;23.73;13.00;;;16.00;67.10;;;;;;5074511;28;20533;-76
2024/02/11 11:50:55;;;;;;;23.43;12.70;;;16.00;66.80;;;;;;5074614;28;20465;-77
2024/02/11 11:53:23;;;;;;;26.07;13.03;;;16.00;68.10;;;;;;5075093;28;20450;-76
2024/02/11 11:55:53;;;;;;;23.67;12.70;;;15.80;68.00;;;;;;5071567;28;20446;-77
2024/02/11 11:58:22;;;;;;;26.20;13.27;;;15.80;68.00;;;;;;5074567;28;20492;-77
2024/02/11 12:00:57;;;;;;;28.27;14.37;;;15.80;68.90;;;;;;5074692;28;20466;-77
2024/02/11 12:03:25;;;;;;;27.80;13.97;;;15.90;69.20;;;;;;5074187;28;20448;-78
2024/02/11 12:05:53;;;;;;;23.03;13.03;;;15.70;68.90;;;;;;5077727;28;20480;-77
2024/02/11 12:08:22;;;;;;;22.17;12.70;;;15.70;69.60;;;;;;5075161;28;20480;-77
2024/02/11 12:10:58;;;;;;;22.43;12.70;;;15.80;70.10;;;;;;5075768;28;20454;-78
2024/02/11 12:13:27;;;;;;;25.27;13.47;;;15.90;69.70;;;;;;5075100;28;20460;-76
2024/02/11 12:15:55;;;;;;;26.50;13.33;;;15.70;70.10;;;;;;5072598;28;20457;-77
2024/02/11 12:18:23;;;;;;;28.57;14.40;;;15.70;70.60;;;;;;5072472;28;20438;-78
2024/02/11 12:20:53;;;;;;;33.47;18.00;;;15.80;71.30;;;;;;5077746;28;20453;-77
2024/02/11 12:23:21;;;;;;;26.50;15.00;;;15.60;70.20;;;;;;5072881;28;20430;-77
2024/02/11 12:25:52;;;;;;;23.13;13.13;;;15.60;71.00;;;;;;5074408;28;20429;-78
2024/02/11 12:28:25;;;;;;;24.77;13.43;;;15.70;71.40;;;;;;5075624;28;20505;-77
2024/02/11 12:31:04;;;;;;;25.73;13.20;;;15.70;69.90;;;;;;5073563;28;20462;-78
2024/02/11 12:33:32;;;;;;;23.60;12.43;;;15.70;70.30;;;;;;5076079;28;20437;-78
2024/02/11 12:36:06;;;;;;;29.07;13.63;;;15.80;70.70;;;;;;5072909;28;20442;-77
2024/02/11 12:38:36;;;;;;;26.63;12.90;;;15.80;70.10;;;;;;5072605;28;20436;-77
2024/02/11 12:41:04;;;;;;;29.43;14.03;;;15.60;70.10;;;;;;5074414;28;20501;-78
2024/02/11 12:43:35;;;;;;;28.07;13.20;;;15.50;71.30;;;;;;5055703;28;20454;-78
2024/02/11 12:46:03;;;;;;;25.37;12.43;;;15.50;72.70;;;;;;5072694;28;20506;-78
2024/02/11 12:48:32;;;;;;;27.07;14.10;;;15.60;72.60;;;;;;5075024;28;20445;-76
2024/02/11 12:51:00;;;;;;;25.10;13.70;;;15.70;72.00;;;;;;5073204;28;20457;-76